Time;durP1;ratioP1;P1;durP2;ratioP2;P2;SDS_P1;SDS_P2;PMS_P1;PMS_P2;Temp;Humidity;BMP_temperature;BMP_pressure;BME280_temperature;BME280_humidity;BME280_pressure;Samples;Min_cycle;Max_cycle;Signal;HPM_P1;HPM_P2
2022/09/09 00:02:22;;;;;;;3.47;1.30;;;19.70;93.10;;;;;;10551664;28;20027;-73
2022/09/09 00:07:45;;;;;;;1.70;1.50;;;19.70;93.10;;;;;;10557140;28;20024;-71
2022/09/09 00:12:57;;;;;;;2.60;1.20;;;19.60;93.10;;;;;;10561395;28;20403;-64
2022/09/09 00:18:37;;;;;;;2.30;1.30;;;19.70;93.10;;;;;;10556128;28;20072;-68
2022/09/09 00:23:42;;;;;;;2.45;1.30;;;19.70;93.10;;;;;;10557827;28;20126;-65
2022/09/09 00:28:58;;;;;;;1.65;1.20;;;19.60;93.10;;;;;;10566165;28;20047;-72
2022/09/09 00:34:22;;;;;;;1.98;1.30;;;19.60;93.00;;;;;;10564215;28;20484;-65
2022/09/09 00:39:34;;;;;;;3.15;1.30;;;19.60;93.10;;;;;;10567814;28;20042;-66
2022/09/09 00:44:37;;;;;;;1.60;1.33;;;19.60;93.00;;;;;;10564749;28;20023;-64
2022/09/09 00:49:49;;;;;;;2.28;1.27;;;19.60;93.10;;;;;;10567585;28;20503;-65
2022/09/09 00:54:58;;;;;;;1.80;1.70;;;19.50;93.00;;;;;;10568020;28;20028;-65
2022/09/09 01:00:19;;;;;;;1.98;1.40;;;19.50;93.00;;;;;;10570892;28;20235;-64
2022/09/09 01:05:37;;;;;;;3.55;1.50;;;19.50;93.00;;;;;;10568042;28;20112;-66
2022/09/09 01:10:50;;;;;;;2.28;1.60;;;19.50;93.00;;;;;;10568820;28;20317;-67
2022/09/09 01:15:53;;;;;;;1.67;1.20;;;19.50;93.00;;;;;;10562629;28;20020;-73
2022/09/09 01:21:09;;;;;;;2.47;1.30;;;19.50;93.00;;;;;;10563859;28;20084;-64
2022/09/09 01:26:10;;;;;;;2.10;1.40;;;19.50;93.00;;;;;;10569721;28;20031;-64
2022/09/09 01:31:15;;;;;;;1.92;1.40;;;19.50;93.00;;;;;;10566901;28;20038;-64
2022/09/09 01:36:26;;;;;;;3.40;1.48;;;19.50;93.00;;;;;;10563701;28;20016;-64
2022/09/09 01:41:27;;;;;;;5.57;1.45;;;19.50;93.00;;;;;;10566473;28;20054;-64
2022/09/09 01:46:28;;;;;;;2.55;1.40;;;19.50;93.00;;;;;;10563651;28;20107;-64
2022/09/09 01:51:30;;;;;;;3.42;1.60;;;19.40;93.00;;;;;;10567333;28;20066;-64
2022/09/09 01:57:01;;;;;;;3.03;1.30;;;19.40;93.10;;;;;;10560168;28;20104;-64
2022/09/09 02:02:17;;;;;;;2.20;1.27;;;19.40;93.10;;;;;;10560503;28;20026;-65
2022/09/09 02:07:46;;;;;;;1.48;1.25;;;19.40;93.10;;;;;;10564398;28;20080;-64
2022/09/09 02:13:00;;;;;;;2.10;1.30;;;19.40;93.10;;;;;;10559252;28;20043;-64
2022/09/09 02:18:08;;;;;;;1.23;1.10;;;19.40;93.20;;;;;;10564221;28;20561;-64
2022/09/09 02:23:10;;;;;;;2.37;1.43;;;19.40;93.20;;;;;;10562045;28;20055;-67
2022/09/09 02:28:14;;;;;;;1.58;1.33;;;19.30;93.20;;;;;;10560498;28;20079;-64
2022/09/09 02:33:15;;;;;;;1.88;1.20;;;19.30;93.20;;;;;;10561100;28;20065;-64
2022/09/09 02:38:17;;;;;;;2.05;1.15;;;19.30;93.20;;;;;;10539502;28;20364;-64
2022/09/09 02:43:18;;;;;;;1.67;1.27;;;19.30;93.20;;;;;;10565724;28;20031;-69
2022/09/09 02:48:34;;;;;;;1.60;1.25;;;19.30;93.20;;;;;;10557250;28;20374;-73
2022/09/09 02:53:51;;;;;;;1.92;1.30;;;19.30;93.30;;;;;;10558825;28;20426;-66
2022/09/09 02:58:52;;;;;;;2.33;1.13;;;19.30;93.30;;;;;;10564018;28;20488;-64
2022/09/09 03:03:54;;;;;;;3.28;1.40;;;19.30;93.30;;;;;;10562608;28;20122;-68
2022/09/09 03:08:56;;;;;;;1.83;1.20;;;19.30;93.30;;;;;;10563520;28;20043;-63
2022/09/09 03:13:56;;;;;;;2.70;1.30;;;19.30;93.30;;;;;;10564403;28;20031;-64
2022/09/09 03:18:57;;;;;;;2.58;1.20;;;19.30;93.30;;;;;;10559545;28;20015;-72
2022/09/09 03:23:58;;;;;;;1.10;1.00;;;19.20;93.40;;;;;;10560159;28;20023;-68
2022/09/09 03:29:00;;;;;;;1.42;1.00;;;19.20;93.30;;;;;;10562968;28;20044;-74
2022/09/09 03:34:00;;;;;;;1.35;1.02;;;19.20;93.30;;;;;;10561568;28;20058;-65
2022/09/09 03:39:02;;;;;;;1.80;1.00;;;19.20;93.30;;;;;;10559601;28;20111;-72
2022/09/09 03:44:03;;;;;;;1.52;1.05;;;19.20;93.40;;;;;;10562574;28;20035;-64
2022/09/09 03:49:04;;;;;;;2.42;1.10;;;19.20;93.40;;;;;;10554803;28;20365;-64
2022/09/09 03:54:07;;;;;;;2.17;1.20;;;19.10;93.30;;;;;;10556406;28;20016;-64
2022/09/09 03:59:08;;;;;;;2.55;1.10;;;19.20;93.40;;;;;;10552255;28;20131;-64
2022/09/09 04:04:09;;;;;;;2.00;1.10;;;19.20;93.40;;;;;;10563686;28;20019;-64
2022/09/09 04:09:10;;;;;;;2.72;1.00;;;19.10;93.40;;;;;;10561442;28;20135;-66
2022/09/09 04:14:10;;;;;;;2.10;1.13;;;19.10;93.40;;;;;;10560816;28;20027;-64
2022/09/09 04:19:13;;;;;;;1.95;1.02;;;19.10;93.40;;;;;;10562807;28;20111;-67
2022/09/09 04:24:16;;;;;;;1.42;0.85;;;19.10;93.40;;;;;;10555911;28;20024;-71
2022/09/09 04:29:17;;;;;;;1.83;1.15;;;19.10;93.40;;;;;;10556496;28;20075;-64
2022/09/09 04:34:17;;;;;;;1.73;1.27;;;19.00;93.40;;;;;;10552661;28;20176;-69
2022/09/09 04:39:19;;;;;;;1.48;0.85;;;19.00;93.40;;;;;;10557288;28;20479;-64
2022/09/09 04:44:20;;;;;;;1.55;1.05;;;19.00;93.40;;;;;;10553097;28;20024;-64
2022/09/09 04:49:20;;;;;;;1.88;1.10;;;19.00;93.40;;;;;;10553033;28;20076;-69
2022/09/09 04:54:21;;;;;;;2.72;1.33;;;19.00;93.40;;;;;;10557544;28;20522;-64
2022/09/09 04:59:22;;;;;;;3.42;1.23;;;19.00;93.40;;;;;;10554206;28;20035;-64
2022/09/09 05:04:22;;;;;;;1.83;1.25;;;19.00;93.40;;;;;;10560341;28;20372;-64
2022/09/09 05:09:23;;;;;;;2.55;1.17;;;18.90;93.40;;;;;;10559736;28;20540;-64
2022/09/09 05:14:24;;;;;;;1.77;1.45;;;18.90;93.40;;;;;;10569860;28;20080;-65
2022/09/09 05:19:24;;;;;;;2.38;1.50;;;18.90;93.40;;;;;;10556673;28;20442;-65
2022/09/09 05:24:25;;;;;;;2.15;1.27;;;18.80;93.40;;;;;;10482699;28;20565;-64
2022/09/09 05:29:26;;;;;;;1.75;1.30;;;18.90;93.40;;;;;;10473495;28;20081;-67
2022/09/09 05:34:27;;;;;;;1.77;1.20;;;18.90;93.40;;;;;;10491288;28;20032;-64
2022/09/09 05:39:28;;;;;;;1.98;1.20;;;18.90;93.40;;;;;;10462837;28;20076;-67
2022/09/09 05:44:29;;;;;;;2.22;1.30;;;18.90;93.30;;;;;;10483150;28;20036;-64
2022/09/09 05:49:29;;;;;;;1.60;1.35;;;18.90;93.60;;;;;;10486528;28;20819;-64
2022/09/09 05:54:30;;;;;;;3.03;1.60;;;18.90;93.30;;;;;;10485793;28;20467;-64
2022/09/09 05:59:32;;;;;;;1.90;1.20;;;18.70;93.20;;;;;;10482191;28;20424;-70
2022/09/09 06:04:33;;;;;;;2.50;1.30;;;18.80;93.30;;;;;;10482958;28;20088;-65
2022/09/09 06:09:34;;;;;;;3.10;1.38;;;18.80;93.30;;;;;;10472667;28;20062;-65
2022/09/09 06:14:34;;;;;;;1.85;1.40;;;18.80;93.20;;;;;;10479710;28;20064;-65
2022/09/09 06:19:35;;;;;;;2.65;1.40;;;18.80;93.20;;;;;;10484568;28;20523;-64
2022/09/09 06:24:36;;;;;;;1.92;1.27;;;18.80;93.20;;;;;;10484150;28;20498;-64
2022/09/09 06:29:37;;;;;;;2.38;1.17;;;18.80;93.20;;;;;;10483438;28;20175;-65
2022/09/09 06:34:38;;;;;;;3.38;1.33;;;18.80;93.20;;;;;;10489303;28;20259;-62
2022/09/09 06:39:38;;;;;;;1.85;1.10;;;18.80;93.20;;;;;;10480089;28;20023;-65
2022/09/09 06:44:39;;;;;;;1.50;1.08;;;18.80;93.20;;;;;;10485216;28;20520;-64
2022/09/09 06:49:40;;;;;;;2.25;1.20;;;18.90;93.20;;;;;;10468166;28;20198;-64
2022/09/09 06:54:40;;;;;;;1.85;1.20;;;18.90;93.10;;;;;;10479534;28;20573;-65
2022/09/09 06:59:42;;;;;;;1.17;1.00;;;18.90;93.20;;;;;;10477404;28;20152;-64
2022/09/09 07:04:43;;;;;;;2.05;1.05;;;18.90;93.10;;;;;;10477130;28;20532;-64
2022/09/09 07:09:45;;;;;;;2.25;1.13;;;18.90;93.10;;;;;;10475253;28;20047;-66
2022/09/09 07:14:46;;;;;;;2.35;1.10;;;18.90;93.10;;;;;;10471322;28;20066;-64
2022/09/09 07:19:48;;;;;;;2.22;1.10;;;18.90;93.00;;;;;;10470784;28;20430;-64
2022/09/09 07:24:49;;;;;;;1.35;1.02;;;18.90;93.00;;;;;;10475560;28;20403;-63
2022/09/09 07:29:50;;;;;;;2.50;1.20;;;19.00;93.10;;;;;;10480548;28;20051;-64
2022/09/09 07:34:51;;;;;;;1.10;0.80;;;19.00;93.10;;;;;;10481571;28;20448;-64
2022/09/09 07:39:51;;;;;;;1.85;1.13;;;19.00;93.10;;;;;;10480179;28;20031;-63
2022/09/09 07:44:54;;;;;;;1.38;0.80;;;19.00;93.00;;;;;;10468606;28;20535;-63
2022/09/09 07:49:55;;;;;;;1.15;0.90;;;19.00;93.10;;;;;;10469253;28;20050;-66
2022/09/09 07:54:56;;;;;;;2.50;1.00;;;19.00;93.10;;;;;;10469971;28;20536;-65
2022/09/09 07:59:57;;;;;;;2.50;1.00;;;19.00;93.10;;;;;;10471068;28;20081;-64
2022/09/09 08:04:58;;;;;;;1.95;1.20;;;19.00;93.10;;;;;;10481148;28;20377;-64
2022/09/09 08:09:59;;;;;;;2.58;1.02;;;19.10;93.10;;;;;;10475596;28;20104;-63
2022/09/09 08:14:59;;;;;;;2.53;1.10;;;19.10;93.10;;;;;;10485261;28;20028;-62
2022/09/09 08:20:05;;;;;;;3.67;1.42;;;19.20;93.30;;;;;;10485658;28;20143;-73
2022/09/09 08:25:08;;;;;;;1.98;1.02;;;19.20;93.10;;;;;;10483174;28;20114;-68
2022/09/09 08:30:09;;;;;;;1.58;1.20;;;19.20;93.20;;;;;;10488280;28;20512;-66
2022/09/09 08:35:10;;;;;;;5.35;1.48;;;19.30;93.20;;;;;;10482076;28;20028;-69
2022/09/09 08:40:22;;;;;;;1.83;1.20;;;19.30;93.20;;;;;;10483906;28;20043;-71
2022/09/09 08:45:52;;;;;;;3.08;1.40;;;19.30;93.30;;;;;;10484321;28;20426;-65
2022/09/09 08:50:54;;;;;;;3.03;1.20;;;19.30;93.30;;;;;;10476882;28;20055;-65
2022/09/09 08:55:59;;;;;;;2.25;1.35;;;19.40;93.20;;;;;;10486279;28;20058;-64
2022/09/09 09:01:08;;;;;;;3.42;1.10;;;19.40;93.20;;;;;;10490895;28;20519;-64
2022/09/09 09:06:30;;;;;;;2.25;1.35;;;19.40;93.20;;;;;;10485475;27;20445;-63
2022/09/09 09:11:40;;;;;;;3.15;1.05;;;19.40;93.30;;;;;;10483537;28;20093;-63
2022/09/09 09:16:56;;;;;;;1.90;1.10;;;19.40;93.20;;;;;;10484937;28;20028;-63
2022/09/09 09:22:27;;;;;;;2.40;1.02;;;19.50;93.30;;;;;;10483439;28;20492;-69
2022/09/09 09:27:36;;;;;;;5.25;2.45;;;19.40;93.20;;;;;;10483271;28;20166;-63
2022/09/09 09:32:40;;;;;;;2.05;1.15;;;19.50;93.20;;;;;;10482996;28;20785;-64
2022/09/09 09:37:43;;;;;;;3.05;1.30;;;19.40;93.30;;;;;;10478527;28;20022;-64
2022/09/09 09:42:59;;;;;;;6.15;1.60;;;19.50;93.30;;;;;;10479016;28;20319;-63
2022/09/09 09:48:05;;;;;;;4.07;1.20;;;19.50;93.40;;;;;;10475889;28;20479;-65
2022/09/09 09:53:17;;;;;;;3.10;1.00;;;19.50;93.40;;;;;;10481429;28;20030;-64
2022/09/09 09:58:18;;;;;;;2.22;0.98;;;19.60;93.30;;;;;;10478260;28;20413;-65
2022/09/09 10:03:31;;;;;;;1.65;1.08;;;19.60;93.30;;;;;;10483507;28;20020;-64
2022/09/09 10:08:45;;;;;;;2.20;1.40;;;19.60;93.30;;;;;;10482462;28;20039;-65
2022/09/09 10:14:01;;;;;;;2.35;1.10;;;19.60;93.30;;;;;;10483439;28;20694;-64
2022/09/09 10:19:07;;;;;;;3.22;1.10;;;19.60;93.30;;;;;;10483925;28;20912;-63
2022/09/09 10:24:27;;;;;;;3.42;1.20;;;19.60;93.30;;;;;;10482507;28;20024;-64
2022/09/09 10:29:43;;;;;;;4.40;1.10;;;19.60;93.40;;;;;;10483744;28;20741;-68
2022/09/09 10:34:56;;;;;;;4.03;1.42;;;19.50;93.50;;;;;;10485206;28;20027;-63
2022/09/09 10:40:06;;;;;;;2.38;1.17;;;19.60;93.50;;;;;;10480637;28;20027;-63
2022/09/09 10:45:35;;;;;;;1.90;1.00;;;19.60;93.50;;;;;;10483191;28;20534;-64
2022/09/09 10:51:18;;;;;;;4.18;1.42;;;19.60;93.50;;;;;;10480873;28;20042;-65
2022/09/09 10:56:23;;;;;;;5.70;2.10;;;19.60;93.50;;;;;;10455494;28;20328;-63
2022/09/09 11:01:39;;;;;;;1.80;1.30;;;19.60;93.50;;;;;;10478909;28;20428;-62
2022/09/09 11:06:44;;;;;;;3.53;1.17;;;19.60;93.50;;;;;;10480584;28;20104;-63
2022/09/09 11:11:50;;;;;;;2.95;1.15;;;19.60;93.50;;;;;;10484080;28;20385;-63
2022/09/09 11:16:56;;;;;;;3.22;1.20;;;19.60;93.40;;;;;;10485575;28;20032;-63
2022/09/09 11:21:58;;;;;;;3.85;1.20;;;19.60;93.40;;;;;;10483332;28;20463;-62
2022/09/09 11:27:06;;;;;;;5.25;1.35;;;19.70;93.30;;;;;;10487305;28;20831;-64
2022/09/09 11:32:26;;;;;;;3.25;1.00;;;19.80;93.20;;;;;;10484101;28;20119;-62
2022/09/09 11:37:39;;;;;;;4.88;1.33;;;19.80;93.10;;;;;;10470911;28;20605;-63
2022/09/09 11:42:41;;;;;;;2.75;1.45;;;19.90;93.10;;;;;;10469889;28;20374;-63
2022/09/09 11:47:58;;;;;;;3.53;1.42;;;19.90;93.00;;;;;;10467605;28;20027;-62
2022/09/09 11:53:20;;;;;;;2.55;1.10;;;20.00;93.00;;;;;;10471238;28;20439;-63
2022/09/09 11:58:22;;;;;;;3.38;1.30;;;19.90;93.00;;;;;;10461710;28;20160;-62
2022/09/09 12:03:55;;;;;;;4.10;1.38;;;19.90;93.00;;;;;;10482351;28;20115;-62
2022/09/09 12:09:07;;;;;;;3.00;1.20;;;19.80;93.00;;;;;;10465297;28;20486;-63
2022/09/09 12:14:35;;;;;;;4.05;1.20;;;19.80;93.10;;;;;;10482816;28;20027;-63
2022/09/09 12:19:35;;;;;;;;;;;19.90;93.10;;;;;;10480993;28;20043;-63
2022/09/09 12:24:47;;;;;;;3.25;1.10;;;19.90;92.90;;;;;;10473432;28;19915;-63
2022/09/09 12:30:04;;;;;;;3.65;1.40;;;20.00;92.90;;;;;;10489829;28;20047;-62
2022/09/09 12:35:14;;;;;;;3.45;1.20;;;20.00;92.90;;;;;;10489256;28;20027;-62
2022/09/09 12:40:34;;;;;;;6.82;1.48;;;20.00;93.00;;;;;;10486294;28;20491;-64
2022/09/09 12:45:40;;;;;;;2.30;1.17;;;20.00;93.10;;;;;;10486307;28;20142;-63
2022/09/09 12:50:52;;;;;;;5.70;1.02;;;20.00;93.10;;;;;;10486677;28;20038;-63
2022/09/09 12:55:59;;;;;;;3.25;1.20;;;19.90;93.10;;;;;;10486939;28;20221;-63
2022/09/09 13:01:04;;;;;;;2.13;1.20;;;19.90;93.20;;;;;;10486696;28;20443;-72
2022/09/09 13:06:17;;;;;;;2.95;1.60;;;19.90;93.20;;;;;;10492742;28;20485;-67
2022/09/09 13:11:28;;;;;;;3.63;1.00;;;20.00;93.20;;;;;;10493309;28;20071;-66
2022/09/09 13:16:34;;;;;;;3.70;1.00;;;19.90;93.30;;;;;;10490385;28;20213;-63
2022/09/09 13:21:37;;;;;;;1.05;0.90;;;20.00;93.30;;;;;;10489560;28;20027;-64
2022/09/09 13:26:38;;;;;;;2.60;1.00;;;20.10;93.20;;;;;;10489601;28;20050;-74
2022/09/09 13:31:39;;;;;;;4.55;1.38;;;20.20;93.10;;;;;;10494231;28;20035;-64
2022/09/09 13:36:41;;;;;;;2.00;1.08;;;20.20;93.00;;;;;;10487729;28;20555;-64
2022/09/09 13:41:44;;;;;;;2.65;1.65;;;20.20;93.00;;;;;;10487136;28;20069;-64
2022/09/09 13:46:44;;;;;;;1.45;1.10;;;20.30;93.00;;;;;;10484470;28;20028;-64
2022/09/09 13:51:48;;;;;;;2.35;0.98;;;20.30;92.90;;;;;;10487796;28;20567;-64
2022/09/09 13:56:49;;;;;;;4.55;1.20;;;20.30;92.90;;;;;;10488858;28;20024;-67
2022/09/09 14:01:52;;;;;;;1.17;0.90;;;20.30;92.90;;;;;;10488904;28;20303;-66
2022/09/09 14:06:53;;;;;;;2.20;1.02;;;20.30;92.90;;;;;;10488003;28;20445;-64
2022/09/09 14:11:55;;;;;;;1.90;0.98;;;20.30;92.90;;;;;;10486332;28;20720;-64
2022/09/09 14:16:55;;;;;;;2.72;0.82;;;20.30;92.90;;;;;;10488796;28;20047;-63
2022/09/09 14:21:57;;;;;;;2.78;1.10;;;20.40;92.80;;;;;;10486148;28;20027;-63
2022/09/09 14:26:58;;;;;;;2.85;1.00;;;20.10;92.80;;;;;;10486668;28;20051;-71
2022/09/09 14:32:00;;;;;;;2.00;1.35;;;20.30;92.90;;;;;;10485224;28;20530;-69
2022/09/09 14:37:01;;;;;;;1.23;1.00;;;20.30;92.90;;;;;;10482368;28;20024;-64
2022/09/09 14:42:02;;;;;;;1.55;0.85;;;20.30;92.90;;;;;;10488881;28;20346;-63
2022/09/09 14:47:03;;;;;;;2.92;1.00;;;20.40;92.90;;;;;;10484321;28;20381;-64
2022/09/09 14:52:04;;;;;;;2.20;0.90;;;20.30;92.80;;;;;;10485563;28;20874;-68
2022/09/09 14:57:05;;;;;;;3.13;1.00;;;20.30;92.90;;;;;;10484936;28;20483;-64
2022/09/09 15:02:07;;;;;;;1.95;0.80;;;20.30;92.90;;;;;;10489877;28;20488;-73
2022/09/09 15:07:08;;;;;;;5.63;1.00;;;20.30;92.90;;;;;;10484679;28;20807;-67
2022/09/09 15:12:09;;;;;;;2.88;0.90;;;20.30;92.90;;;;;;10481419;28;20067;-64
2022/09/09 15:17:10;;;;;;;2.55;0.90;;;20.30;92.90;;;;;;10487250;28;20039;-70
2022/09/09 15:22:10;;;;;;;1.80;0.90;;;20.30;92.90;;;;;;10484070;28;20030;-66
2022/09/09 15:27:11;;;;;;;3.08;1.17;;;20.30;93.00;;;;;;10485454;28;20079;-66
2022/09/09 15:32:12;;;;;;;1.00;0.90;;;20.30;93.00;;;;;;10486575;28;20108;-66
2022/09/09 15:37:16;;;;;;;2.78;1.75;;;20.20;93.00;;;;;;10482960;28;20268;-63
2022/09/09 15:42:16;;;;;;;2.00;1.10;;;20.30;93.00;;;;;;10480822;28;20019;-64
2022/09/09 15:47:17;;;;;;;2.17;0.90;;;20.30;93.00;;;;;;10484284;28;20519;-72
2022/09/09 15:52:18;;;;;;;2.15;1.00;;;20.30;93.10;;;;;;10477647;28;20426;-63
2022/09/09 15:57:19;;;;;;;2.08;1.10;;;20.30;93.20;;;;;;10484850;28;20266;-63
2022/09/09 16:02:19;;;;;;;1.35;1.08;;;20.20;93.20;;;;;;10479204;28;20031;-64
2022/09/09 16:07:20;;;;;;;3.30;1.15;;;20.20;93.30;;;;;;10485041;28;20346;-70
2022/09/09 16:12:21;;;;;;;2.17;0.90;;;20.20;93.30;;;;;;10485071;28;20410;-65
2022/09/09 16:17:21;;;;;;;3.67;1.10;;;20.20;93.40;;;;;;10484401;28;20155;-65
2022/09/09 16:22:23;;;;;;;0.98;0.88;;;20.20;93.40;;;;;;10486789;28;20414;-63
2022/09/09 16:27:24;;;;;;;3.33;1.17;;;20.20;93.40;;;;;;10479919;28;20088;-64
2022/09/09 16:32:25;;;;;;;1.65;0.85;;;20.20;93.40;;;;;;10474104;28;20047;-64
2022/09/09 16:37:25;;;;;;;1.73;1.10;;;20.10;93.40;;;;;;10479416;28;20047;-64
2022/09/09 16:42:27;;;;;;;3.42;1.30;;;20.10;93.40;;;;;;10477833;28;20825;-64
2022/09/09 16:47:28;;;;;;;1.92;1.10;;;20.10;93.50;;;;;;10474542;28;20086;-63
2022/09/09 16:52:28;;;;;;;1.63;1.00;;;20.10;93.50;;;;;;10479386;28;20795;-64
2022/09/09 16:57:30;;;;;;;3.03;1.23;;;20.10;93.50;;;;;;10470465;28;20031;-63
2022/09/09 17:02:30;;;;;;;2.65;1.10;;;20.10;93.60;;;;;;10467257;28;20473;-64
2022/09/09 17:07:32;;;;;;;3.47;1.30;;;20.10;93.60;;;;;;10466138;28;20032;-63
2022/09/09 17:12:33;;;;;;;2.00;1.10;;;20.00;93.90;;;;;;10458780;28;20557;-63
2022/09/09 17:17:33;;;;;;;2.63;1.33;;;19.70;94.40;;;;;;10475262;28;20202;-64
2022/09/09 17:22:34;;;;;;;3.10;1.20;;;19.70;94.50;;;;;;10459754;28;20304;-64
2022/09/09 17:27:35;;;;;;;3.55;1.38;;;19.80;94.50;;;;;;10479147;28;20337;-63
2022/09/09 17:32:36;;;;;;;6.00;1.42;;;19.80;94.40;;;;;;10473521;28;20103;-63
2022/09/09 17:37:37;;;;;;;2.60;1.10;;;19.80;94.40;;;;;;10448181;28;20578;-64
2022/09/09 17:42:37;;;;;;;1.95;1.25;;;19.80;94.40;;;;;;10476442;28;20034;-64
2022/09/09 17:47:39;;;;;;;3.28;1.20;;;19.90;94.40;;;;;;10480871;28;20326;-63
2022/09/09 17:52:40;;;;;;;3.05;1.20;;;19.80;94.40;;;;;;10468445;28;20047;-64
2022/09/09 17:57:42;;;;;;;2.35;1.23;;;19.80;94.40;;;;;;10472149;28;20392;-63
2022/09/09 18:02:42;;;;;;;3.03;1.30;;;19.80;94.40;;;;;;10482093;28;20056;-65
2022/09/09 18:07:43;;;;;;;11.85;1.63;;;19.80;94.40;;;;;;10453413;28;20209;-64
2022/09/09 18:12:44;;;;;;;13.07;1.80;;;19.80;94.70;;;;;;10473716;28;20355;-63
2022/09/09 18:17:45;;;;;;;6.53;1.55;;;19.70;94.80;;;;;;10476561;28;20042;-63
2022/09/09 18:22:46;;;;;;;3.28;1.27;;;19.70;94.80;;;;;;10467606;28;20035;-63
2022/09/09 18:27:46;;;;;;;6.15;1.60;;;19.70;94.90;;;;;;10469030;28;20042;-63
2022/09/09 18:32:49;;;;;;;5.68;1.30;;;19.70;94.90;;;;;;10513304;28;20134;-69
2022/09/09 18:37:50;;;;;;;3.95;1.08;;;19.70;94.90;;;;;;10558960;28;20081;-63
2022/09/09 18:42:51;;;;;;;2.45;0.93;;;19.70;94.90;;;;;;10562312;28;20044;-65
2022/09/09 18:47:52;;;;;;;5.70;1.48;;;19.70;94.90;;;;;;10556226;28;20073;-63
2022/09/09 18:52:52;;;;;;;4.97;1.50;;;19.70;94.90;;;;;;10560657;27;20051;-65
2022/09/09 18:57:53;;;;;;;3.08;1.40;;;19.70;94.90;;;;;;10561159;27;20023;-63
2022/09/09 19:02:54;;;;;;;1.42;1.17;;;19.60;94.90;;;;;;10556119;28;20143;-63
2022/09/09 19:07:55;;;;;;;2.95;1.20;;;19.60;94.90;;;;;;10554256;28;20038;-64
2022/09/09 19:12:56;;;;;;;5.72;1.40;;;19.60;94.80;;;;;;10561848;28;20039;-63
2022/09/09 19:17:57;;;;;;;2.78;1.35;;;19.60;94.90;;;;;;10556868;28;20020;-67
2022/09/09 19:22:58;;;;;;;4.22;1.20;;;19.60;94.90;;;;;;10553507;28;20492;-64
2022/09/09 19:28:00;;;;;;;2.80;1.27;;;19.60;94.80;;;;;;10557317;28;20051;-64
2022/09/09 19:33:00;;;;;;;1.75;1.00;;;19.60;94.90;;;;;;10536813;28;20036;-64
2022/09/09 19:38:01;;;;;;;3.25;1.30;;;19.60;94.80;;;;;;10559148;28;20050;-64
2022/09/09 19:43:02;;;;;;;3.25;1.10;;;19.60;94.80;;;;;;10554552;28;20460;-66
2022/09/09 19:48:02;;;;;;;3.65;1.00;;;19.50;94.80;;;;;;10555776;28;20024;-64
2022/09/09 19:53:03;;;;;;;2.15;1.25;;;19.50;94.80;;;;;;10555963;28;20044;-64
2022/09/09 19:58:04;;;;;;;2.08;1.30;;;19.50;94.80;;;;;;10548357;28;20016;-63
2022/09/09 20:03:04;;;;;;;2.05;0.90;;;19.50;94.80;;;;;;10557804;27;20023;-63
2022/09/09 20:08:05;;;;;;;4.60;1.30;;;19.50;94.80;;;;;;10561276;28;20026;-64
2022/09/09 20:13:06;;;;;;;2.28;1.50;;;19.50;94.80;;;;;;10556407;28;20033;-63
2022/09/09 20:18:07;;;;;;;1.55;1.05;;;19.50;94.80;;;;;;10559100;28;20015;-66
2022/09/09 20:23:07;;;;;;;1.40;1.10;;;19.40;94.80;;;;;;10561940;28;20035;-65
2022/09/09 20:28:08;;;;;;;1.85;0.90;;;19.40;94.80;;;;;;10555452;28;20559;-64
2022/09/09 20:33:09;;;;;;;1.80;1.27;;;19.40;94.80;;;;;;10553536;28;20060;-64
2022/09/09 20:38:10;;;;;;;2.75;1.10;;;19.40;94.80;;;;;;10550110;28;20076;-66
2022/09/09 20:43:11;;;;;;;1.35;1.10;;;19.40;94.70;;;;;;10555130;28;20080;-64
2022/09/09 20:48:12;;;;;;;1.52;1.10;;;19.40;94.70;;;;;;10566274;28;20016;-63
2022/09/09 20:53:14;;;;;;;1.10;1.00;;;19.30;94.70;;;;;;10560745;28;20038;-63
2022/09/09 20:58:14;;;;;;;1.15;1.05;;;19.30;94.70;;;;;;10559416;28;20028;-64
2022/09/09 21:03:15;;;;;;;1.55;0.90;;;19.30;94.70;;;;;;10564031;28;20016;-68
2022/09/09 21:08:16;;;;;;;2.00;0.90;;;19.10;94.60;;;;;;10565629;28;20083;-67
2022/09/09 21:13:18;;;;;;;1.20;1.00;;;19.30;94.70;;;;;;10563080;28;20032;-65
2022/09/09 21:18:18;;;;;;;1.52;1.25;;;19.20;94.60;;;;;;10561363;28;20032;-63
2022/09/09 21:23:19;;;;;;;1.83;1.15;;;19.30;94.70;;;;;;10564849;28;20427;-64
2022/09/09 21:28:20;;;;;;;2.35;1.10;;;19.20;94.60;;;;;;10557844;28;20415;-64
2022/09/09 21:33:23;;;;;;;1.60;1.13;;;19.20;94.60;;;;;;10550615;28;20038;-63
2022/09/09 21:38:24;;;;;;;1.42;0.98;;;19.20;94.60;;;;;;10551677;28;20487;-64
2022/09/09 21:43:25;;;;;;;2.08;1.20;;;19.20;94.60;;;;;;10561625;28;20034;-63
2022/09/09 21:48:25;;;;;;;2.50;1.55;;;19.10;94.60;;;;;;10560634;28;20509;-63
2022/09/09 21:53:26;;;;;;;2.45;1.30;;;19.10;94.60;;;;;;10561168;28;20097;-63
2022/09/09 21:58:27;;;;;;;2.55;1.38;;;19.10;94.60;;;;;;10561401;28;20028;-63
2022/09/09 22:03:27;;;;;;;1.77;1.40;;;19.10;94.70;;;;;;10560947;28;20032;-63
2022/09/09 22:08:28;;;;;;;2.47;1.40;;;19.10;94.70;;;;;;10555744;28;20028;-64
2022/09/09 22:13:29;;;;;;;1.35;1.10;;;19.10;94.70;;;;;;10559435;28;20096;-64
2022/09/09 22:18:30;;;;;;;2.60;1.67;;;19.10;94.70;;;;;;10557412;28;20421;-64
2022/09/09 22:23:31;;;;;;;1.83;1.30;;;19.10;94.70;;;;;;10559331;28;20031;-64
2022/09/09 22:28:33;;;;;;;1.70;1.60;;;19.00;94.70;;;;;;10563214;28;20601;-64
2022/09/09 22:33:34;;;;;;;2.08;1.38;;;19.00;94.70;;;;;;10561703;28;20035;-65
2022/09/09 22:38:35;;;;;;;1.98;1.60;;;19.00;94.70;;;;;;10562273;28;20022;-65
2022/09/09 22:43:36;;;;;;;3.25;1.70;;;19.00;94.70;;;;;;10563590;28;20038;-64
2022/09/09 22:48:38;;;;;;;2.65;1.42;;;19.00;94.70;;;;;;10564880;28;20023;-65
2022/09/09 22:53:40;;;;;;;1.65;1.55;;;19.00;94.70;;;;;;10562041;28;20054;-63
2022/09/09 22:58:40;;;;;;;2.22;1.83;;;19.00;94.70;;;;;;10562977;28;20024;-63
2022/09/09 23:03:44;;;;;;;3.97;1.63;;;18.90;94.70;;;;;;10562448;28;20024;-66
2022/09/09 23:08:45;;;;;;;2.85;2.00;;;18.90;94.70;;;;;;10561124;28;20107;-64
2022/09/09 23:13:49;;;;;;;3.33;1.80;;;18.90;94.70;;;;;;10559689;28;20130;-64
2022/09/09 23:18:52;;;;;;;2.95;1.75;;;18.90;94.70;;;;;;10562082;28;20035;-64
2022/09/09 23:23:54;;;;;;;3.83;1.77;;;18.90;94.70;;;;;;10563436;28;20031;-65
2022/09/09 23:28:57;;;;;;;3.25;1.58;;;18.90;94.70;;;;;;10561897;28;20047;-64
2022/09/09 23:33:59;;;;;;;2.95;1.65;;;18.90;94.70;;;;;;10559194;27;20180;-63
2022/09/09 23:39:02;;;;;;;4.32;1.75;;;18.90;94.70;;;;;;10536960;28;20364;-64
2022/09/09 23:44:04;;;;;;;2.67;2.03;;;18.80;94.70;;;;;;10560106;28;20108;-64
2022/09/09 23:49:07;;;;;;;3.38;1.83;;;18.80;94.70;;;;;;10562888;28;20495;-64
2022/09/09 23:54:08;;;;;;;2.50;1.90;;;18.80;94.70;;;;;;10559950;28;20050;-64
2022/09/09 23:59:09;;;;;;;3.42;1.88;;;18.80;94.70;;;;;;10562216;28;21305;-64
